sensor_id;sensor_type;location;lat;lon;timestamp;temperature;humidity
13892;DHT22;7016;48.172;8.058;2023-08-31T00:00:10;15.20;99.90
13892;DHT22;7016;48.172;8.058;2023-08-31T00:02:38;15.20;99.90
13892;DHT22;7016;48.172;8.058;2023-08-31T00:05:04;15.20;99.90
13892;DHT22;7016;48.172;8.058;2023-08-31T00:07:31;15.10;99.90
13892;DHT22;7016;48.172;8.058;2023-08-31T00:09:57;15.10;99.90
13892;DHT22;7016;48.172;8.058;2023-08-31T00:12:24;15.10;99.90
13892;DHT22;7016;48.172;8.058;2023-08-31T00:14:50;15.10;99.90
13892;DHT22;7016;48.172;8.058;2023-08-31T00:17:16;15.10;99.90
13892;DHT22;7016;48.172;8.058;2023-08-31T00:19:43;15.10;99.90
13892;DHT22;7016;48.172;8.058;2023-08-31T00:22:09;15.10;99.90
13892;DHT22;7016;48.172;8.058;2023-08-31T00:24:34;15.10;99.90
13892;DHT22;7016;48.172;8.058;2023-08-31T00:27:02;15.10;99.90
13892;DHT22;7016;48.172;8.058;2023-08-31T00:29:29;15.10;99.90
13892;DHT22;7016;48.172;8.058;2023-08-31T00:31:56;15.10;99.90
13892;DHT22;7016;48.172;8.058;2023-08-31T00:34:22;15.10;99.90
13892;DHT22;7016;48.172;8.058;2023-08-31T00:36:48;15.00;99.90
13892;DHT22;7016;48.172;8.058;2023-08-31T00:39:14;15.10;99.90
13892;DHT22;7016;48.172;8.058;2023-08-31T00:41:40;15.00;99.90
13892;DHT22;7016;48.172;8.058;2023-08-31T00:44:06;14.80;99.90
13892;DHT22;7016;48.172;8.058;2023-08-31T00:46:33;14.80;99.90
13892;DHT22;7016;48.172;8.058;2023-08-31T00:48:59;14.90;99.90
13892;DHT22;7016;48.172;8.058;2023-08-31T00:51:25;15.00;99.90
13892;DHT22;7016;48.172;8.058;2023-08-31T00:53:52;15.00;99.90
13892;DHT22;7016;48.172;8.058;2023-08-31T00:56:20;15.00;99.90
13892;DHT22;7016;48.172;8.058;2023-08-31T00:58:46;15.00;99.90
13892;DHT22;7016;48.172;8.058;2023-08-31T01:04:18;14.90;99.90
13892;DHT22;7016;48.172;8.058;2023-08-31T01:07:20;15.00;99.90
13892;DHT22;7016;48.172;8.058;2023-08-31T01:12:20;15.00;99.90
13892;DHT22;7016;48.172;8.058;2023-08-31T01:14:54;15.00;99.90
13892;DHT22;7016;48.172;8.058;2023-08-31T01:17:24;15.00;99.90
13892;DHT22;7016;48.172;8.058;2023-08-31T01:19:52;15.00;99.90
13892;DHT22;7016;48.172;8.058;2023-08-31T01:22:39;15.00;99.90
13892;DHT22;7016;48.172;8.058;2023-08-31T01:25:06;15.00;99.90
13892;DHT22;7016;48.172;8.058;2023-08-31T01:27:37;15.00;99.90
13892;DHT22;7016;48.172;8.058;2023-08-31T01:30:04;15.00;99.90
13892;DHT22;7016;48.172;8.058;2023-08-31T01:32:31;14.90;99.90
13892;DHT22;7016;48.172;8.058;2023-08-31T01:34:57;14.80;99.90
13892;DHT22;7016;48.172;8.058;2023-08-31T01:40:31;14.80;99.90
13892;DHT22;7016;48.172;8.058;2023-08-31T01:43:03;14.90;99.90
13892;DHT22;7016;48.172;8.058;2023-08-31T01:45:32;14.90;99.90
13892;DHT22;7016;48.172;8.058;2023-08-31T01:48:01;14.80;99.90
13892;DHT22;7016;48.172;8.058;2023-08-31T01:50:27;14.80;99.90
13892;DHT22;7016;48.172;8.058;2023-08-31T01:52:53;14.80;99.90
13892;DHT22;7016;48.172;8.058;2023-08-31T01:55:18;14.90;99.90
13892;DHT22;7016;48.172;8.058;2023-08-31T01:57:44;14.90;99.90
13892;DHT22;7016;48.172;8.058;2023-08-31T02:00:11;14.90;99.90
13892;DHT22;7016;48.172;8.058;2023-08-31T02:02:37;14.90;99.90
13892;DHT22;7016;48.172;8.058;2023-08-31T02:05:03;14.90;99.90
13892;DHT22;7016;48.172;8.058;2023-08-31T02:07:30;14.80;99.90
13892;DHT22;7016;48.172;8.058;2023-08-31T02:09:55;14.80;99.90
13892;DHT22;7016;48.172;8.058;2023-08-31T02:12:21;14.90;99.90
13892;DHT22;7016;48.172;8.058;2023-08-31T02:14:47;14.80;99.90
13892;DHT22;7016;48.172;8.058;2023-08-31T02:17:13;14.80;99.90
13892;DHT22;7016;48.172;8.058;2023-08-31T02:19:39;14.80;99.90
13892;DHT22;7016;48.172;8.058;2023-08-31T02:22:04;14.80;99.90
13892;DHT22;7016;48.172;8.058;2023-08-31T02:24:30;14.80;99.90
13892;DHT22;7016;48.172;8.058;2023-08-31T02:26:56;14.80;99.90
13892;DHT22;7016;48.172;8.058;2023-08-31T02:29:22;14.80;99.90
13892;DHT22;7016;48.172;8.058;2023-08-31T02:31:48;14.80;99.90
13892;DHT22;7016;48.172;8.058;2023-08-31T02:34:13;14.80;99.90
13892;DHT22;7016;48.172;8.058;2023-08-31T02:36:39;14.80;99.90
13892;DHT22;7016;48.172;8.058;2023-08-31T02:39:05;14.80;99.90
13892;DHT22;7016;48.172;8.058;2023-08-31T02:41:31;14.70;99.90
13892;DHT22;7016;48.172;8.058;2023-08-31T02:43:57;14.80;99.90
13892;DHT22;7016;48.172;8.058;2023-08-31T02:46:23;14.90;99.90
13892;DHT22;7016;48.172;8.058;2023-08-31T02:48:49;14.90;99.90
13892;DHT22;7016;48.172;8.058;2023-08-31T02:51:15;14.90;99.90
13892;DHT22;7016;48.172;8.058;2023-08-31T02:53:41;14.90;99.90
13892;DHT22;7016;48.172;8.058;2023-08-31T02:56:07;14.90;99.90
13892;DHT22;7016;48.172;8.058;2023-08-31T02:58:33;14.90;99.90
13892;DHT22;7016;48.172;8.058;2023-08-31T03:01:09;14.80;99.90
13892;DHT22;7016;48.172;8.058;2023-08-31T03:03:37;14.80;99.90
13892;DHT22;7016;48.172;8.058;2023-08-31T03:06:03;14.80;99.90
13892;DHT22;7016;48.172;8.058;2023-08-31T03:08:29;14.80;99.90
13892;DHT22;7016;48.172;8.058;2023-08-31T03:10:56;14.80;99.90
13892;DHT22;7016;48.172;8.058;2023-08-31T03:13:22;14.80;99.90
13892;DHT22;7016;48.172;8.058;2023-08-31T03:15:47;14.80;99.90
13892;DHT22;7016;48.172;8.058;2023-08-31T03:18:13;14.80;99.90
13892;DHT22;7016;48.172;8.058;2023-08-31T03:20:39;14.90;99.90
13892;DHT22;7016;48.172;8.058;2023-08-31T03:23:04;14.90;99.90
13892;DHT22;7016;48.172;8.058;2023-08-31T03:25:30;14.90;99.90
13892;DHT22;7016;48.172;8.058;2023-08-31T03:27:56;14.80;99.90
13892;DHT22;7016;48.172;8.058;2023-08-31T03:30:21;14.90;99.90
13892;DHT22;7016;48.172;8.058;2023-08-31T03:32:47;14.90;99.90
13892;DHT22;7016;48.172;8.058;2023-08-31T03:35:13;14.80;99.90
13892;DHT22;7016;48.172;8.058;2023-08-31T03:37:41;14.80;99.90
13892;DHT22;7016;48.172;8.058;2023-08-31T03:40:07;14.90;99.90
13892;DHT22;7016;48.172;8.058;2023-08-31T03:42:34;14.80;99.90
13892;DHT22;7016;48.172;8.058;2023-08-31T03:45:00;14.80;99.90
13892;DHT22;7016;48.172;8.058;2023-08-31T03:47:26;14.80;99.90
13892;DHT22;7016;48.172;8.058;2023-08-31T03:49:52;14.80;99.90
13892;DHT22;7016;48.172;8.058;2023-08-31T03:52:18;14.80;99.90
13892;DHT22;7016;48.172;8.058;2023-08-31T03:54:43;14.80;99.90
13892;DHT22;7016;48.172;8.058;2023-08-31T03:57:09;14.80;99.90
13892;DHT22;7016;48.172;8.058;2023-08-31T03:59:34;14.80;99.90
13892;DHT22;7016;48.172;8.058;2023-08-31T04:02:00;14.80;99.90
13892;DHT22;7016;48.172;8.058;2023-08-31T04:04:26;14.80;99.90
13892;DHT22;7016;48.172;8.058;2023-08-31T04:06:51;14.90;99.90
13892;DHT22;7016;48.172;8.058;2023-08-31T04:09:17;14.90;99.90
13892;DHT22;7016;48.172;8.058;2023-08-31T04:11:42;14.90;99.90
13892;DHT22;7016;48.172;8.058;2023-08-31T04:14:08;14.90;99.90
13892;DHT22;7016;48.172;8.058;2023-08-31T04:16:34;14.90;99.90
13892;DHT22;7016;48.172;8.058;2023-08-31T04:18:59;14.90;99.90
13892;DHT22;7016;48.172;8.058;2023-08-31T04:21:25;14.80;99.90
13892;DHT22;7016;48.172;8.058;2023-08-31T04:23:51;14.90;99.90
13892;DHT22;7016;48.172;8.058;2023-08-31T04:26:16;14.80;99.90
13892;DHT22;7016;48.172;8.058;2023-08-31T04:28:43;14.80;99.90
13892;DHT22;7016;48.172;8.058;2023-08-31T04:31:09;14.80;99.90
13892;DHT22;7016;48.172;8.058;2023-08-31T04:33:38;14.80;99.90
13892;DHT22;7016;48.172;8.058;2023-08-31T04:36:05;14.80;99.90
13892;DHT22;7016;48.172;8.058;2023-08-31T04:38:31;14.80;99.90
13892;DHT22;7016;48.172;8.058;2023-08-31T04:41:01;14.80;99.90
13892;DHT22;7016;48.172;8.058;2023-08-31T04:43:27;14.90;99.90
13892;DHT22;7016;48.172;8.058;2023-08-31T04:45:53;14.90;99.90
13892;DHT22;7016;48.172;8.058;2023-08-31T04:48:19;14.90;99.90
13892;DHT22;7016;48.172;8.058;2023-08-31T04:50:45;14.90;99.90
13892;DHT22;7016;48.172;8.058;2023-08-31T04:53:10;14.90;99.90
13892;DHT22;7016;48.172;8.058;2023-08-31T04:55:36;14.90;99.90
13892;DHT22;7016;48.172;8.058;2023-08-31T04:58:03;14.90;99.90
13892;DHT22;7016;48.172;8.058;2023-08-31T05:00:29;14.90;99.90
13892;DHT22;7016;48.172;8.058;2023-08-31T05:02:55;14.90;99.90
13892;DHT22;7016;48.172;8.058;2023-08-31T05:05:21;14.90;99.90
13892;DHT22;7016;48.172;8.058;2023-08-31T05:07:47;15.00;99.90
13892;DHT22;7016;48.172;8.058;2023-08-31T05:10:12;14.90;99.90
13892;DHT22;7016;48.172;8.058;2023-08-31T05:12:38;14.90;99.90
13892;DHT22;7016;48.172;8.058;2023-08-31T05:15:04;14.90;99.90
13892;DHT22;7016;48.172;8.058;2023-08-31T05:17:30;14.90;99.90
13892;DHT22;7016;48.172;8.058;2023-08-31T05:19:56;15.00;99.90
13892;DHT22;7016;48.172;8.058;2023-08-31T05:22:22;15.00;99.90
13892;DHT22;7016;48.172;8.058;2023-08-31T05:24:48;15.00;99.90
13892;DHT22;7016;48.172;8.058;2023-08-31T05:27:14;15.00;99.90
13892;DHT22;7016;48.172;8.058;2023-08-31T05:29:40;14.90;99.90
13892;DHT22;7016;48.172;8.058;2023-08-31T05:32:05;14.90;99.90
13892;DHT22;7016;48.172;8.058;2023-08-31T05:34:31;15.00;99.90
13892;DHT22;7016;48.172;8.058;2023-08-31T05:37:00;15.00;99.90
13892;DHT22;7016;48.172;8.058;2023-08-31T05:39:26;15.00;99.90
13892;DHT22;7016;48.172;8.058;2023-08-31T05:41:51;15.00;99.90
13892;DHT22;7016;48.172;8.058;2023-08-31T05:44:17;14.90;99.90
13892;DHT22;7016;48.172;8.058;2023-08-31T05:46:43;14.90;99.90
13892;DHT22;7016;48.172;8.058;2023-08-31T05:49:08;15.00;99.90
13892;DHT22;7016;48.172;8.058;2023-08-31T05:51:34;15.00;99.90
13892;DHT22;7016;48.172;8.058;2023-08-31T05:54:00;14.90;99.90
13892;DHT22;7016;48.172;8.058;2023-08-31T05:56:26;14.80;99.90
13892;DHT22;7016;48.172;8.058;2023-08-31T05:58:51;14.80;99.90
13892;DHT22;7016;48.172;8.058;2023-08-31T06:01:20;14.80;99.90
13892;DHT22;7016;48.172;8.058;2023-08-31T06:03:47;14.80;99.90
13892;DHT22;7016;48.172;8.058;2023-08-31T06:06:13;14.80;99.90
13892;DHT22;7016;48.172;8.058;2023-08-31T06:08:39;15.00;99.90
13892;DHT22;7016;48.172;8.058;2023-08-31T06:11:05;15.00;99.90
13892;DHT22;7016;48.172;8.058;2023-08-31T06:13:31;15.00;99.90
13892;DHT22;7016;48.172;8.058;2023-08-31T06:15:57;15.00;99.90
13892;DHT22;7016;48.172;8.058;2023-08-31T06:18:23;15.00;99.90
13892;DHT22;7016;48.172;8.058;2023-08-31T06:20:49;15.00;99.90
13892;DHT22;7016;48.172;8.058;2023-08-31T06:23:15;14.90;99.90
13892;DHT22;7016;48.172;8.058;2023-08-31T06:25:40;14.80;99.90
13892;DHT22;7016;48.172;8.058;2023-08-31T06:28:06;14.80;99.90
13892;DHT22;7016;48.172;8.058;2023-08-31T06:30:34;14.60;99.90
13892;DHT22;7016;48.172;8.058;2023-08-31T06:33:00;14.60;99.90
13892;DHT22;7016;48.172;8.058;2023-08-31T06:35:26;14.50;99.90
13892;DHT22;7016;48.172;8.058;2023-08-31T06:37:52;14.50;99.90
13892;DHT22;7016;48.172;8.058;2023-08-31T06:40:17;14.60;99.90
13892;DHT22;7016;48.172;8.058;2023-08-31T06:42:43;14.60;99.90
13892;DHT22;7016;48.172;8.058;2023-08-31T06:45:09;14.70;99.90
13892;DHT22;7016;48.172;8.058;2023-08-31T06:47:35;14.80;99.90
13892;DHT22;7016;48.172;8.058;2023-08-31T06:50:01;14.80;99.90
13892;DHT22;7016;48.172;8.058;2023-08-31T06:52:28;14.90;99.90
13892;DHT22;7016;48.172;8.058;2023-08-31T06:54:54;15.00;99.90
13892;DHT22;7016;48.172;8.058;2023-08-31T06:57:22;15.00;99.90
13892;DHT22;7016;48.172;8.058;2023-08-31T06:59:48;15.10;99.90
13892;DHT22;7016;48.172;8.058;2023-08-31T07:02:14;15.10;99.90
13892;DHT22;7016;48.172;8.058;2023-08-31T07:04:40;15.10;99.90
13892;DHT22;7016;48.172;8.058;2023-08-31T07:07:06;15.20;99.90
13892;DHT22;7016;48.172;8.058;2023-08-31T07:09:31;15.30;99.90
13892;DHT22;7016;48.172;8.058;2023-08-31T07:11:57;15.30;99.90
13892;DHT22;7016;48.172;8.058;2023-08-31T07:14:23;15.40;99.90
13892;DHT22;7016;48.172;8.058;2023-08-31T07:16:49;15.40;99.90
13892;DHT22;7016;48.172;8.058;2023-08-31T07:19:16;15.40;99.90
13892;DHT22;7016;48.172;8.058;2023-08-31T07:21:41;15.40;99.90
13892;DHT22;7016;48.172;8.058;2023-08-31T07:24:07;15.60;99.90
13892;DHT22;7016;48.172;8.058;2023-08-31T07:26:33;15.60;99.90
13892;DHT22;7016;48.172;8.058;2023-08-31T07:29:00;15.90;99.90
13892;DHT22;7016;48.172;8.058;2023-08-31T07:31:30;15.90;99.90
13892;DHT22;7016;48.172;8.058;2023-08-31T07:33:56;15.90;99.90
13892;DHT22;7016;48.172;8.058;2023-08-31T07:36:21;16.00;99.90
13892;DHT22;7016;48.172;8.058;2023-08-31T07:38:47;16.00;99.90
13892;DHT22;7016;48.172;8.058;2023-08-31T07:41:12;16.00;99.90
13892;DHT22;7016;48.172;8.058;2023-08-31T07:43:38;16.10;99.90
13892;DHT22;7016;48.172;8.058;2023-08-31T07:46:04;16.20;99.90
13892;DHT22;7016;48.172;8.058;2023-08-31T07:48:29;16.40;99.90
13892;DHT22;7016;48.172;8.058;2023-08-31T07:50:55;16.40;99.90
13892;DHT22;7016;48.172;8.058;2023-08-31T07:53:21;16.40;99.90
13892;DHT22;7016;48.172;8.058;2023-08-31T07:55:55;16.40;99.90
13892;DHT22;7016;48.172;8.058;2023-08-31T07:58:22;16.40;99.90
13892;DHT22;7016;48.172;8.058;2023-08-31T08:00:49;16.40;99.90
13892;DHT22;7016;48.172;8.058;2023-08-31T08:03:17;16.50;99.90
13892;DHT22;7016;48.172;8.058;2023-08-31T08:05:43;16.60;99.90
13892;DHT22;7016;48.172;8.058;2023-08-31T08:08:09;16.60;99.90
13892;DHT22;7016;48.172;8.058;2023-08-31T08:10:35;16.60;99.90
13892;DHT22;7016;48.172;8.058;2023-08-31T08:13:00;16.70;99.90
13892;DHT22;7016;48.172;8.058;2023-08-31T08:15:26;16.70;99.90
13892;DHT22;7016;48.172;8.058;2023-08-31T08:17:51;16.60;99.90
13892;DHT22;7016;48.172;8.058;2023-08-31T08:20:19;16.50;99.90
13892;DHT22;7016;48.172;8.058;2023-08-31T08:22:45;16.60;99.90
13892;DHT22;7016;48.172;8.058;2023-08-31T08:25:11;16.80;99.90
13892;DHT22;7016;48.172;8.058;2023-08-31T08:27:36;16.80;99.90
13892;DHT22;7016;48.172;8.058;2023-08-31T08:30:03;16.80;99.90
13892;DHT22;7016;48.172;8.058;2023-08-31T08:32:28;16.60;99.90
13892;DHT22;7016;48.172;8.058;2023-08-31T08:34:54;16.70;99.90
13892;DHT22;7016;48.172;8.058;2023-08-31T08:37:20;16.80;99.90
13892;DHT22;7016;48.172;8.058;2023-08-31T08:39:49;16.90;99.90
13892;DHT22;7016;48.172;8.058;2023-08-31T08:42:18;16.20;99.90
13892;DHT22;7016;48.172;8.058;2023-08-31T08:44:44;16.90;99.90
13892;DHT22;7016;48.172;8.058;2023-08-31T08:47:11;16.70;99.90
13892;DHT22;7016;48.172;8.058;2023-08-31T08:49:37;16.80;99.90
13892;DHT22;7016;48.172;8.058;2023-08-31T08:52:04;16.80;99.90
13892;DHT22;7016;48.172;8.058;2023-08-31T08:54:30;16.90;99.90
13892;DHT22;7016;48.172;8.058;2023-08-31T08:56:56;17.00;99.90
13892;DHT22;7016;48.172;8.058;2023-08-31T08:59:24;17.20;99.90
13892;DHT22;7016;48.172;8.058;2023-08-31T09:01:49;17.00;99.90
13892;DHT22;7016;48.172;8.058;2023-08-31T09:04:15;17.10;99.90
13892;DHT22;7016;48.172;8.058;2023-08-31T09:06:41;17.00;99.90
13892;DHT22;7016;48.172;8.058;2023-08-31T09:09:10;17.00;99.90
13892;DHT22;7016;48.172;8.058;2023-08-31T09:11:36;17.00;99.90
13892;DHT22;7016;48.172;8.058;2023-08-31T09:14:18;17.00;99.90
13892;DHT22;7016;48.172;8.058;2023-08-31T09:16:46;17.00;99.90
13892;DHT22;7016;48.172;8.058;2023-08-31T09:19:23;17.20;99.90
13892;DHT22;7016;48.172;8.058;2023-08-31T09:21:49;17.30;99.90
13892;DHT22;7016;48.172;8.058;2023-08-31T09:24:15;17.30;99.90
13892;DHT22;7016;48.172;8.058;2023-08-31T09:26:44;17.20;99.90
13892;DHT22;7016;48.172;8.058;2023-08-31T09:29:12;17.30;99.90
13892;DHT22;7016;48.172;8.058;2023-08-31T09:31:37;17.40;99.90
13892;DHT22;7016;48.172;8.058;2023-08-31T09:34:03;17.60;99.90
13892;DHT22;7016;48.172;8.058;2023-08-31T09:36:29;17.60;99.90
13892;DHT22;7016;48.172;8.058;2023-08-31T09:38:58;17.70;99.90
13892;DHT22;7016;48.172;8.058;2023-08-31T09:41:24;17.80;99.90
13892;DHT22;7016;48.172;8.058;2023-08-31T09:43:50;17.90;99.90
13892;DHT22;7016;48.172;8.058;2023-08-31T09:46:16;17.90;99.90
13892;DHT22;7016;48.172;8.058;2023-08-31T09:48:42;18.00;99.90
13892;DHT22;7016;48.172;8.058;2023-08-31T09:51:10;18.00;99.90
13892;DHT22;7016;48.172;8.058;2023-08-31T09:53:37;18.10;99.90
13892;DHT22;7016;48.172;8.058;2023-08-31T09:56:05;18.00;99.90
13892;DHT22;7016;48.172;8.058;2023-08-31T09:58:32;17.60;99.90
13892;DHT22;7016;48.172;8.058;2023-08-31T10:00:59;17.70;99.90
13892;DHT22;7016;48.172;8.058;2023-08-31T10:03:26;17.80;99.90
13892;DHT22;7016;48.172;8.058;2023-08-31T10:05:54;17.90;99.90
13892;DHT22;7016;48.172;8.058;2023-08-31T10:10:46;18.00;99.90
13892;DHT22;7016;48.172;8.058;2023-08-31T10:13:13;17.90;99.90
13892;DHT22;7016;48.172;8.058;2023-08-31T10:15:41;18.00;99.90
13892;DHT22;7016;48.172;8.058;2023-08-31T10:18:08;17.90;99.90
13892;DHT22;7016;48.172;8.058;2023-08-31T10:20:34;17.90;99.90
13892;DHT22;7016;48.172;8.058;2023-08-31T10:23:05;17.90;99.90
13892;DHT22;7016;48.172;8.058;2023-08-31T10:28:22;18.10;99.90
13892;DHT22;7016;48.172;8.058;2023-08-31T10:31:15;18.20;99.90
13892;DHT22;7016;48.172;8.058;2023-08-31T10:36:18;18.30;99.90
13892;DHT22;7016;48.172;8.058;2023-08-31T10:39:00;18.30;99.90
13892;DHT22;7016;48.172;8.058;2023-08-31T10:41:33;18.20;99.90
13892;DHT22;7016;48.172;8.058;2023-08-31T10:44:00;18.30;99.90
13892;DHT22;7016;48.172;8.058;2023-08-31T10:46:42;18.40;99.90
13892;DHT22;7016;48.172;8.058;2023-08-31T10:51:42;18.60;99.90
13892;DHT22;7016;48.172;8.058;2023-08-31T10:54:12;18.40;99.90
13892;DHT22;7016;48.172;8.058;2023-08-31T11:05:15;18.50;99.90
13892;DHT22;7016;48.172;8.058;2023-08-31T11:07:46;18.50;99.90
13892;DHT22;7016;48.172;8.058;2023-08-31T11:10:15;18.40;99.90
13892;DHT22;7016;48.172;8.058;2023-08-31T11:12:43;18.40;99.90
13892;DHT22;7016;48.172;8.058;2023-08-31T11:15:12;18.30;99.90
13892;DHT22;7016;48.172;8.058;2023-08-31T11:17:40;18.40;99.90
13892;DHT22;7016;48.172;8.058;2023-08-31T11:20:08;18.40;99.90
13892;DHT22;7016;48.172;8.058;2023-08-31T11:22:37;18.50;99.90
13892;DHT22;7016;48.172;8.058;2023-08-31T11:25:03;18.60;99.90
13892;DHT22;7016;48.172;8.058;2023-08-31T11:27:29;18.50;99.90
13892;DHT22;7016;48.172;8.058;2023-08-31T11:29:55;18.60;99.90
13892;DHT22;7016;48.172;8.058;2023-08-31T11:32:23;18.60;99.90
13892;DHT22;7016;48.172;8.058;2023-08-31T11:34:50;18.50;99.90
13892;DHT22;7016;48.172;8.058;2023-08-31T11:37:16;18.70;99.90
13892;DHT22;7016;48.172;8.058;2023-08-31T11:39:52;18.70;99.90
13892;DHT22;7016;48.172;8.058;2023-08-31T11:42:20;18.70;99.90
13892;DHT22;7016;48.172;8.058;2023-08-31T11:44:50;18.70;99.90
13892;DHT22;7016;48.172;8.058;2023-08-31T11:47:17;18.50;99.90
13892;DHT22;7016;48.172;8.058;2023-08-31T11:49:44;18.50;99.90
13892;DHT22;7016;48.172;8.058;2023-08-31T11:52:12;18.60;99.90
13892;DHT22;7016;48.172;8.058;2023-08-31T11:54:39;18.70;99.90
13892;DHT22;7016;48.172;8.058;2023-08-31T11:57:08;18.40;99.90
13892;DHT22;7016;48.172;8.058;2023-08-31T11:59:35;18.50;99.90
13892;DHT22;7016;48.172;8.058;2023-08-31T12:02:05;18.60;99.90
13892;DHT22;7016;48.172;8.058;2023-08-31T12:04:31;18.60;99.90
13892;DHT22;7016;48.172;8.058;2023-08-31T12:07:03;18.90;99.90
13892;DHT22;7016;48.172;8.058;2023-08-31T12:09:32;18.80;99.90
13892;DHT22;7016;48.172;8.058;2023-08-31T12:11:58;18.90;99.90
13892;DHT22;7016;48.172;8.058;2023-08-31T12:14:26;19.10;99.90
13892;DHT22;7016;48.172;8.058;2023-08-31T12:17:03;19.20;99.90
13892;DHT22;7016;48.172;8.058;2023-08-31T12:19:30;19.20;99.90
13892;DHT22;7016;48.172;8.058;2023-08-31T12:21:56;19.20;99.90
13892;DHT22;7016;48.172;8.058;2023-08-31T12:24:22;19.10;99.90
13892;DHT22;7016;48.172;8.058;2023-08-31T12:26:49;19.20;99.90
13892;DHT22;7016;48.172;8.058;2023-08-31T12:29:15;19.30;99.90
13892;DHT22;7016;48.172;8.058;2023-08-31T12:31:41;19.30;99.90
13892;DHT22;7016;48.172;8.058;2023-08-31T12:34:07;19.40;99.90
13892;DHT22;7016;48.172;8.058;2023-08-31T12:36:33;19.40;99.90
13892;DHT22;7016;48.172;8.058;2023-08-31T12:38:59;19.20;99.90
13892;DHT22;7016;48.172;8.058;2023-08-31T12:41:31;19.20;99.90
13892;DHT22;7016;48.172;8.058;2023-08-31T12:43:56;19.20;99.90
13892;DHT22;7016;48.172;8.058;2023-08-31T12:46:23;19.30;99.90
13892;DHT22;7016;48.172;8.058;2023-08-31T12:48:49;19.40;99.90
13892;DHT22;7016;48.172;8.058;2023-08-31T12:51:18;19.40;99.90
13892;DHT22;7016;48.172;8.058;2023-08-31T12:53:44;19.50;99.90
13892;DHT22;7016;48.172;8.058;2023-08-31T12:56:10;19.50;99.90
13892;DHT22;7016;48.172;8.058;2023-08-31T12:58:37;19.50;99.90
13892;DHT22;7016;48.172;8.058;2023-08-31T13:01:03;19.50;99.90
13892;DHT22;7016;48.172;8.058;2023-08-31T13:03:29;19.60;99.90
13892;DHT22;7016;48.172;8.058;2023-08-31T13:05:54;19.40;99.90
13892;DHT22;7016;48.172;8.058;2023-08-31T13:08:20;19.40;99.90
13892;DHT22;7016;48.172;8.058;2023-08-31T13:10:53;19.30;99.90
13892;DHT22;7016;48.172;8.058;2023-08-31T13:13:19;19.40;99.90
13892;DHT22;7016;48.172;8.058;2023-08-31T13:15:49;19.40;99.90
13892;DHT22;7016;48.172;8.058;2023-08-31T13:18:15;19.30;99.90
13892;DHT22;7016;48.172;8.058;2023-08-31T13:20:40;19.20;99.90
13892;DHT22;7016;48.172;8.058;2023-08-31T13:23:07;19.30;99.90
13892;DHT22;7016;48.172;8.058;2023-08-31T13:25:33;19.20;99.90
13892;DHT22;7016;48.172;8.058;2023-08-31T13:27:58;19.20;99.90
13892;DHT22;7016;48.172;8.058;2023-08-31T13:30:24;19.10;99.90
13892;DHT22;7016;48.172;8.058;2023-08-31T13:32:50;19.10;99.90
13892;DHT22;7016;48.172;8.058;2023-08-31T13:35:16;19.30;99.90
13892;DHT22;7016;48.172;8.058;2023-08-31T13:37:41;19.30;99.90
13892;DHT22;7016;48.172;8.058;2023-08-31T13:40:07;19.30;99.90
13892;DHT22;7016;48.172;8.058;2023-08-31T13:42:35;19.40;99.90
13892;DHT22;7016;48.172;8.058;2023-08-31T13:45:06;19.40;99.90
13892;DHT22;7016;48.172;8.058;2023-08-31T13:47:31;19.50;99.90
13892;DHT22;7016;48.172;8.058;2023-08-31T13:49:57;19.40;99.90
13892;DHT22;7016;48.172;8.058;2023-08-31T13:52:23;19.50;99.90
13892;DHT22;7016;48.172;8.058;2023-08-31T13:54:50;19.50;99.90
13892;DHT22;7016;48.172;8.058;2023-08-31T13:57:15;19.60;99.90
13892;DHT22;7016;48.172;8.058;2023-08-31T13:59:43;19.50;99.90
13892;DHT22;7016;48.172;8.058;2023-08-31T14:02:09;19.50;99.90
13892;DHT22;7016;48.172;8.058;2023-08-31T14:04:35;19.50;99.90
13892;DHT22;7016;48.172;8.058;2023-08-31T14:07:01;19.60;99.90
13892;DHT22;7016;48.172;8.058;2023-08-31T14:09:28;19.70;99.90
13892;DHT22;7016;48.172;8.058;2023-08-31T14:11:54;19.70;99.90
13892;DHT22;7016;48.172;8.058;2023-08-31T14:14:22;19.60;99.90
13892;DHT22;7016;48.172;8.058;2023-08-31T14:16:49;19.60;99.90
13892;DHT22;7016;48.172;8.058;2023-08-31T14:19:15;19.60;99.90
13892;DHT22;7016;48.172;8.058;2023-08-31T14:21:41;19.60;99.90
13892;DHT22;7016;48.172;8.058;2023-08-31T14:24:07;19.50;99.90
13892;DHT22;7016;48.172;8.058;2023-08-31T14:26:32;19.50;99.90
13892;DHT22;7016;48.172;8.058;2023-08-31T14:28:58;19.30;99.90
13892;DHT22;7016;48.172;8.058;2023-08-31T14:31:24;19.40;99.90
13892;DHT22;7016;48.172;8.058;2023-08-31T14:33:50;19.30;99.90
13892;DHT22;7016;48.172;8.058;2023-08-31T14:36:17;19.40;99.90
13892;DHT22;7016;48.172;8.058;2023-08-31T14:38:43;19.40;99.90
13892;DHT22;7016;48.172;8.058;2023-08-31T14:41:11;19.40;99.90
13892;DHT22;7016;48.172;8.058;2023-08-31T14:43:37;19.40;99.90
13892;DHT22;7016;48.172;8.058;2023-08-31T14:46:05;19.50;99.90
13892;DHT22;7016;48.172;8.058;2023-08-31T14:48:31;19.40;99.90
13892;DHT22;7016;48.172;8.058;2023-08-31T14:50:57;19.40;99.90
13892;DHT22;7016;48.172;8.058;2023-08-31T14:53:26;19.40;99.90
13892;DHT22;7016;48.172;8.058;2023-08-31T14:55:52;19.40;99.90
13892;DHT22;7016;48.172;8.058;2023-08-31T14:58:18;19.40;99.90
13892;DHT22;7016;48.172;8.058;2023-08-31T15:00:44;19.40;99.90
13892;DHT22;7016;48.172;8.058;2023-08-31T15:03:13;19.40;99.90
13892;DHT22;7016;48.172;8.058;2023-08-31T15:05:39;19.40;99.90
13892;DHT22;7016;48.172;8.058;2023-08-31T15:08:07;19.30;99.90
13892;DHT22;7016;48.172;8.058;2023-08-31T15:10:33;19.40;99.90
13892;DHT22;7016;48.172;8.058;2023-08-31T15:12:59;19.40;99.90
13892;DHT22;7016;48.172;8.058;2023-08-31T15:15:29;19.40;99.90
13892;DHT22;7016;48.172;8.058;2023-08-31T15:17:54;19.50;99.90
13892;DHT22;7016;48.172;8.058;2023-08-31T15:20:21;19.40;99.90
13892;DHT22;7016;48.172;8.058;2023-08-31T15:22:47;19.50;99.90
13892;DHT22;7016;48.172;8.058;2023-08-31T15:25:12;19.50;99.90
13892;DHT22;7016;48.172;8.058;2023-08-31T15:27:39;19.50;99.90
13892;DHT22;7016;48.172;8.058;2023-08-31T15:30:05;19.50;99.90
13892;DHT22;7016;48.172;8.058;2023-08-31T15:32:33;19.50;99.90
13892;DHT22;7016;48.172;8.058;2023-08-31T15:34:59;19.50;99.90
13892;DHT22;7016;48.172;8.058;2023-08-31T15:37:24;19.60;99.90
13892;DHT22;7016;48.172;8.058;2023-08-31T15:39:53;19.60;99.90
13892;DHT22;7016;48.172;8.058;2023-08-31T15:42:19;19.60;99.90
13892;DHT22;7016;48.172;8.058;2023-08-31T15:44:45;19.70;99.90
13892;DHT22;7016;48.172;8.058;2023-08-31T15:47:10;19.70;99.90
13892;DHT22;7016;48.172;8.058;2023-08-31T15:49:36;19.70;99.90
13892;DHT22;7016;48.172;8.058;2023-08-31T15:52:02;19.70;99.90
13892;DHT22;7016;48.172;8.058;2023-08-31T15:54:29;19.70;99.90
13892;DHT22;7016;48.172;8.058;2023-08-31T15:56:56;19.70;99.90
13892;DHT22;7016;48.172;8.058;2023-08-31T15:59:21;19.70;99.90
13892;DHT22;7016;48.172;8.058;2023-08-31T16:01:47;19.60;99.90
13892;DHT22;7016;48.172;8.058;2023-08-31T16:04:13;19.70;99.90
13892;DHT22;7016;48.172;8.058;2023-08-31T16:06:39;19.70;99.90
13892;DHT22;7016;48.172;8.058;2023-08-31T16:09:06;19.70;99.90